sensor_id;sensor_type;location;lat;lon;timestamp;temperature;humidity
9323;DHT22;4700;48.822;9.270;2023-07-31T00:00:59;16.60;1.00
9323;DHT22;4700;48.822;9.270;2023-07-31T00:03:45;16.50;1.00
9323;DHT22;4700;48.822;9.270;2023-07-31T00:09:18;16.30;1.00
9323;DHT22;4700;48.822;9.270;2023-07-31T00:14:51;16.50;1.00
9323;DHT22;4700;48.822;9.270;2023-07-31T00:17:37;16.40;1.00
9323;DHT22;4700;48.822;9.270;2023-07-31T00:20:23;16.30;1.00
9323;DHT22;4700;48.822;9.270;2023-07-31T00:23:09;16.30;1.00
9323;DHT22;4700;48.822;9.270;2023-07-31T00:25:56;16.30;1.00
9323;DHT22;4700;48.822;9.270;2023-07-31T00:28:42;16.30;1.00
9323;DHT22;4700;48.822;9.270;2023-07-31T00:31:28;16.40;1.00
9323;DHT22;4700;48.822;9.270;2023-07-31T00:34:13;16.40;1.00
9323;DHT22;4700;48.822;9.270;2023-07-31T00:36:59;16.40;1.00
9323;DHT22;4700;48.822;9.270;2023-07-31T00:39:44;16.20;1.00
9323;DHT22;4700;48.822;9.270;2023-07-31T00:42:32;16.30;1.00
9323;DHT22;4700;48.822;9.270;2023-07-31T00:45:18;16.40;1.00
9323;DHT22;4700;48.822;9.270;2023-07-31T00:48:05;15.80;1.00
9323;DHT22;4700;48.822;9.270;2023-07-31T00:50:51;16.00;1.00
9323;DHT22;4700;48.822;9.270;2023-07-31T00:53:37;16.10;1.00
9323;DHT22;4700;48.822;9.270;2023-07-31T00:56:24;16.30;1.00
9323;DHT22;4700;48.822;9.270;2023-07-31T00:59:12;16.00;1.00
9323;DHT22;4700;48.822;9.270;2023-07-31T01:02:05;15.80;1.00
9323;DHT22;4700;48.822;9.270;2023-07-31T01:04:51;16.10;1.00
9323;DHT22;4700;48.822;9.270;2023-07-31T01:07:49;15.90;1.00
9323;DHT22;4700;48.822;9.270;2023-07-31T01:10:41;16.00;1.00
9323;DHT22;4700;48.822;9.270;2023-07-31T01:13:30;15.90;1.00
9323;DHT22;4700;48.822;9.270;2023-07-31T01:16:17;15.70;1.00
9323;DHT22;4700;48.822;9.270;2023-07-31T01:19:03;15.60;1.00
9323;DHT22;4700;48.822;9.270;2023-07-31T01:22:12;15.70;1.00
9323;DHT22;4700;48.822;9.270;2023-07-31T01:25:11;15.70;1.00
9323;DHT22;4700;48.822;9.270;2023-07-31T01:28:05;15.70;1.00
9323;DHT22;4700;48.822;9.270;2023-07-31T01:30:54;15.50;1.00
9323;DHT22;4700;48.822;9.270;2023-07-31T01:33:40;15.40;1.00
9323;DHT22;4700;48.822;9.270;2023-07-31T01:36:27;15.40;1.00
9323;DHT22;4700;48.822;9.270;2023-07-31T01:39:12;15.40;1.00
9323;DHT22;4700;48.822;9.270;2023-07-31T01:41:59;15.40;1.00
9323;DHT22;4700;48.822;9.270;2023-07-31T01:44:47;15.50;1.00
9323;DHT22;4700;48.822;9.270;2023-07-31T01:47:32;15.50;1.00
9323;DHT22;4700;48.822;9.270;2023-07-31T01:50:18;15.70;1.00
9323;DHT22;4700;48.822;9.270;2023-07-31T01:53:04;15.70;1.00
9323;DHT22;4700;48.822;9.270;2023-07-31T01:58:38;15.80;1.00
9323;DHT22;4700;48.822;9.270;2023-07-31T02:01:25;15.80;1.00
9323;DHT22;4700;48.822;9.270;2023-07-31T02:04:11;15.70;1.00
9323;DHT22;4700;48.822;9.270;2023-07-31T02:06:57;15.80;1.00
9323;DHT22;4700;48.822;9.270;2023-07-31T02:09:43;15.60;1.00
9323;DHT22;4700;48.822;9.270;2023-07-31T02:18:07;15.60;1.00
9323;DHT22;4700;48.822;9.270;2023-07-31T02:20:53;15.50;1.00
9323;DHT22;4700;48.822;9.270;2023-07-31T02:23:38;15.60;1.00
9323;DHT22;4700;48.822;9.270;2023-07-31T02:26:24;15.50;1.00
9323;DHT22;4700;48.822;9.270;2023-07-31T02:29:14;15.60;1.00
9323;DHT22;4700;48.822;9.270;2023-07-31T02:32:00;15.50;1.00
9323;DHT22;4700;48.822;9.270;2023-07-31T02:34:47;15.50;1.00
9323;DHT22;4700;48.822;9.270;2023-07-31T02:37:34;15.50;1.00
9323;DHT22;4700;48.822;9.270;2023-07-31T02:40:19;15.50;1.00
9323;DHT22;4700;48.822;9.270;2023-07-31T02:43:05;15.60;1.00
9323;DHT22;4700;48.822;9.270;2023-07-31T02:45:51;15.80;1.00
9323;DHT22;4700;48.822;9.270;2023-07-31T02:48:38;15.60;1.00
9323;DHT22;4700;48.822;9.270;2023-07-31T02:51:27;15.80;1.00
9323;DHT22;4700;48.822;9.270;2023-07-31T02:54:13;15.80;1.00
9323;DHT22;4700;48.822;9.270;2023-07-31T02:56:59;13.60;1.00
9323;DHT22;4700;48.822;9.270;2023-07-31T02:59:45;15.90;1.00
9323;DHT22;4700;48.822;9.270;2023-07-31T03:02:33;15.90;1.00
9323;DHT22;4700;48.822;9.270;2023-07-31T03:05:18;15.90;1.00
9323;DHT22;4700;48.822;9.270;2023-07-31T03:08:05;15.80;1.00
9323;DHT22;4700;48.822;9.270;2023-07-31T03:10:51;15.80;1.00
9323;DHT22;4700;48.822;9.270;2023-07-31T03:24:35;15.60;1.00
9323;DHT22;4700;48.822;9.270;2023-07-31T03:27:21;15.50;1.00
9323;DHT22;4700;48.822;9.270;2023-07-31T03:30:07;15.50;1.00
9323;DHT22;4700;48.822;9.270;2023-07-31T03:32:56;15.50;1.00
9323;DHT22;4700;48.822;9.270;2023-07-31T03:35:42;15.50;1.00
9323;DHT22;4700;48.822;9.270;2023-07-31T03:38:29;15.50;1.00
9323;DHT22;4700;48.822;9.270;2023-07-31T03:41:16;15.50;1.00
9323;DHT22;4700;48.822;9.270;2023-07-31T03:46:48;15.50;1.00
9323;DHT22;4700;48.822;9.270;2023-07-31T03:49:33;15.50;1.00
9323;DHT22;4700;48.822;9.270;2023-07-31T03:52:19;15.30;1.00
9323;DHT22;4700;48.822;9.270;2023-07-31T03:55:05;15.40;1.00
9323;DHT22;4700;48.822;9.270;2023-07-31T03:57:52;15.30;1.00
9323;DHT22;4700;48.822;9.270;2023-07-31T04:00:40;15.40;1.00
9323;DHT22;4700;48.822;9.270;2023-07-31T04:03:26;15.30;1.00
9323;DHT22;4700;48.822;9.270;2023-07-31T04:06:12;15.40;1.00
9323;DHT22;4700;48.822;9.270;2023-07-31T04:08:58;15.40;1.00
9323;DHT22;4700;48.822;9.270;2023-07-31T04:19:52;15.70;1.00
9323;DHT22;4700;48.822;9.270;2023-07-31T04:22:38;15.80;1.00
9323;DHT22;4700;48.822;9.270;2023-07-31T04:25:23;16.00;1.00
9323;DHT22;4700;48.822;9.270;2023-07-31T04:28:09;16.10;1.00
9323;DHT22;4700;48.822;9.270;2023-07-31T04:30:56;16.20;1.00
9323;DHT22;4700;48.822;9.270;2023-07-31T04:33:42;16.30;1.00
9323;DHT22;4700;48.822;9.270;2023-07-31T04:36:28;16.30;1.00
9323;DHT22;4700;48.822;9.270;2023-07-31T04:39:14;16.40;1.00
9323;DHT22;4700;48.822;9.270;2023-07-31T04:41:59;16.50;1.00
9323;DHT22;4700;48.822;9.270;2023-07-31T04:44:47;16.90;1.00
9323;DHT22;4700;48.822;9.270;2023-07-31T04:47:34;17.10;1.00
9323;DHT22;4700;48.822;9.270;2023-07-31T04:50:20;17.10;1.00
9323;DHT22;4700;48.822;9.270;2023-07-31T04:55:51;17.40;1.00
9323;DHT22;4700;48.822;9.270;2023-07-31T04:58:37;17.40;1.00
9323;DHT22;4700;48.822;9.270;2023-07-31T05:01:23;17.40;1.00
9323;DHT22;4700;48.822;9.270;2023-07-31T05:04:12;17.60;1.00
9323;DHT22;4700;48.822;9.270;2023-07-31T05:06:57;17.70;1.00
9323;DHT22;4700;48.822;9.270;2023-07-31T05:09:43;17.70;1.00
9323;DHT22;4700;48.822;9.270;2023-07-31T05:12:29;17.90;1.00
9323;DHT22;4700;48.822;9.270;2023-07-31T05:15:02;17.90;1.00
9323;DHT22;4700;48.822;9.270;2023-07-31T05:17:47;17.90;1.00
9323;DHT22;4700;48.822;9.270;2023-07-31T05:20:34;18.00;1.00
9323;DHT22;4700;48.822;9.270;2023-07-31T05:23:20;18.00;1.00
9323;DHT22;4700;48.822;9.270;2023-07-31T05:26:06;18.10;1.00
9323;DHT22;4700;48.822;9.270;2023-07-31T05:28:53;17.80;1.00
9323;DHT22;4700;48.822;9.270;2023-07-31T05:31:39;18.10;1.00
9323;DHT22;4700;48.822;9.270;2023-07-31T05:34:24;18.20;1.00
9323;DHT22;4700;48.822;9.270;2023-07-31T05:37:11;18.20;1.00
9323;DHT22;4700;48.822;9.270;2023-07-31T05:39:57;18.40;1.00
9323;DHT22;4700;48.822;9.270;2023-07-31T05:42:43;18.40;1.00
9323;DHT22;4700;48.822;9.270;2023-07-31T05:45:28;18.60;1.00
9323;DHT22;4700;48.822;9.270;2023-07-31T05:48:14;19.00;1.00
9323;DHT22;4700;48.822;9.270;2023-07-31T05:51:00;18.30;1.00
9323;DHT22;4700;48.822;9.270;2023-07-31T05:53:50;19.10;1.00
9323;DHT22;4700;48.822;9.270;2023-07-31T05:56:37;19.20;1.00
9323;DHT22;4700;48.822;9.270;2023-07-31T05:59:23;19.70;1.00
9323;DHT22;4700;48.822;9.270;2023-07-31T06:02:08;19.50;1.00
9323;DHT22;4700;48.822;9.270;2023-07-31T06:04:54;20.10;1.00
9323;DHT22;4700;48.822;9.270;2023-07-31T06:07:39;19.70;1.00
9323;DHT22;4700;48.822;9.270;2023-07-31T06:10:27;19.80;1.00
9323;DHT22;4700;48.822;9.270;2023-07-31T06:15:59;20.10;1.00
9323;DHT22;4700;48.822;9.270;2023-07-31T06:18:47;20.00;1.00
9323;DHT22;4700;48.822;9.270;2023-07-31T06:24:21;21.00;1.00
9323;DHT22;4700;48.822;9.270;2023-07-31T06:27:09;22.60;1.00
9323;DHT22;4700;48.822;9.270;2023-07-31T06:29:55;23.00;1.00
9323;DHT22;4700;48.822;9.270;2023-07-31T06:32:41;23.00;1.00
9323;DHT22;4700;48.822;9.270;2023-07-31T06:35:26;23.20;1.00
9323;DHT22;4700;48.822;9.270;2023-07-31T06:38:12;22.90;1.00
9323;DHT22;4700;48.822;9.270;2023-07-31T06:40:57;23.40;1.00
9323;DHT22;4700;48.822;9.270;2023-07-31T06:43:44;24.10;1.00
9323;DHT22;4700;48.822;9.270;2023-07-31T06:46:30;25.40;1.00
9323;DHT22;4700;48.822;9.270;2023-07-31T06:49:16;24.60;1.00
9323;DHT22;4700;48.822;9.270;2023-07-31T06:52:02;24.30;1.00
9323;DHT22;4700;48.822;9.270;2023-07-31T06:55:00;24.00;1.00
9323;DHT22;4700;48.822;9.270;2023-07-31T06:57:47;24.40;1.00
9323;DHT22;4700;48.822;9.270;2023-07-31T07:00:34;26.10;1.00
9323;DHT22;4700;48.822;9.270;2023-07-31T07:03:22;28.00;1.00
9323;DHT22;4700;48.822;9.270;2023-07-31T07:06:08;28.80;1.00
9323;DHT22;4700;48.822;9.270;2023-07-31T07:08:54;28.20;1.00
9323;DHT22;4700;48.822;9.270;2023-07-31T07:11:39;28.60;1.00
9323;DHT22;4700;48.822;9.270;2023-07-31T07:14:25;29.30;1.00
9323;DHT22;4700;48.822;9.270;2023-07-31T07:17:14;30.40;1.00
9323;DHT22;4700;48.822;9.270;2023-07-31T07:20:00;31.90;1.00
9323;DHT22;4700;48.822;9.270;2023-07-31T07:22:47;33.20;1.00
9323;DHT22;4700;48.822;9.270;2023-07-31T07:25:33;33.10;1.00
9323;DHT22;4700;48.822;9.270;2023-07-31T07:28:18;33.10;1.00
9323;DHT22;4700;48.822;9.270;2023-07-31T07:33:51;30.50;1.00
9323;DHT22;4700;48.822;9.270;2023-07-31T07:36:37;27.80;1.00
9323;DHT22;4700;48.822;9.270;2023-07-31T07:42:08;28.70;1.00
9323;DHT22;4700;48.822;9.270;2023-07-31T07:44:56;28.20;1.00
9323;DHT22;4700;48.822;9.270;2023-07-31T07:47:42;26.40;1.00
9323;DHT22;4700;48.822;9.270;2023-07-31T07:50:31;26.90;1.00
9323;DHT22;4700;48.822;9.270;2023-07-31T07:53:17;25.80;1.00
9323;DHT22;4700;48.822;9.270;2023-07-31T07:56:05;25.90;1.00
9323;DHT22;4700;48.822;9.270;2023-07-31T07:58:52;26.80;1.00
9323;DHT22;4700;48.822;9.270;2023-07-31T08:01:38;27.20;1.00
9323;DHT22;4700;48.822;9.270;2023-07-31T08:04:24;26.40;1.00
9323;DHT22;4700;48.822;9.270;2023-07-31T08:07:12;26.10;1.00
9323;DHT22;4700;48.822;9.270;2023-07-31T08:09:58;25.80;1.00
9323;DHT22;4700;48.822;9.270;2023-07-31T08:12:44;24.90;1.00
9323;DHT22;4700;48.822;9.270;2023-07-31T08:15:29;27.10;1.00
9323;DHT22;4700;48.822;9.270;2023-07-31T08:18:15;27.40;1.00
9323;DHT22;4700;48.822;9.270;2023-07-31T08:21:02;30.10;1.00
9323;DHT22;4700;48.822;9.270;2023-07-31T08:23:49;30.10;1.00
9323;DHT22;4700;48.822;9.270;2023-07-31T08:26:34;31.90;1.00
9323;DHT22;4700;48.822;9.270;2023-07-31T08:29:20;32.10;1.00
9323;DHT22;4700;48.822;9.270;2023-07-31T08:32:06;31.50;1.00
9323;DHT22;4700;48.822;9.270;2023-07-31T08:34:52;31.00;1.00
9323;DHT22;4700;48.822;9.270;2023-07-31T08:37:38;29.90;1.00
9323;DHT22;4700;48.822;9.270;2023-07-31T08:40:25;29.80;1.00
9323;DHT22;4700;48.822;9.270;2023-07-31T08:43:11;30.90;1.00
9323;DHT22;4700;48.822;9.270;2023-07-31T08:45:57;31.10;1.00
9323;DHT22;4700;48.822;9.270;2023-07-31T08:48:43;30.40;1.00
9323;DHT22;4700;48.822;9.270;2023-07-31T08:51:30;31.00;1.00
9323;DHT22;4700;48.822;9.270;2023-07-31T08:54:15;32.10;1.00
9323;DHT22;4700;48.822;9.270;2023-07-31T08:57:04;30.90;1.00
9323;DHT22;4700;48.822;9.270;2023-07-31T08:59:50;30.20;1.00
9323;DHT22;4700;48.822;9.270;2023-07-31T09:02:45;29.50;1.00
9323;DHT22;4700;48.822;9.270;2023-07-31T09:05:32;29.60;1.00
9323;DHT22;4700;48.822;9.270;2023-07-31T09:08:19;29.30;1.00
9323;DHT22;4700;48.822;9.270;2023-07-31T09:11:05;28.40;1.00
9323;DHT22;4700;48.822;9.270;2023-07-31T09:13:52;29.30;1.00
9323;DHT22;4700;48.822;9.270;2023-07-31T09:16:53;30.40;1.00
9323;DHT22;4700;48.822;9.270;2023-07-31T09:19:39;34.30;1.00
9323;DHT22;4700;48.822;9.270;2023-07-31T09:22:32;34.50;1.00
9323;DHT22;4700;48.822;9.270;2023-07-31T09:25:19;33.50;1.00
9323;DHT22;4700;48.822;9.270;2023-07-31T09:28:10;32.80;1.00
9323;DHT22;4700;48.822;9.270;2023-07-31T09:30:59;33.00;1.00
9323;DHT22;4700;48.822;9.270;2023-07-31T09:33:54;34.90;1.00
9323;DHT22;4700;48.822;9.270;2023-07-31T09:36:42;36.00;1.00
9323;DHT22;4700;48.822;9.270;2023-07-31T09:39:27;36.10;99.90
9323;DHT22;4700;48.822;9.270;2023-07-31T09:42:24;38.70;99.90
9323;DHT22;4700;48.822;9.270;2023-07-31T09:45:11;37.90;99.90
9323;DHT22;4700;48.822;9.270;2023-07-31T09:47:58;34.00;99.90
9323;DHT22;4700;48.822;9.270;2023-07-31T09:50:45;30.60;99.90
9323;DHT22;4700;48.822;9.270;2023-07-31T09:56:21;31.30;99.90
9323;DHT22;4700;48.822;9.270;2023-07-31T09:59:08;31.20;1.00
9323;DHT22;4700;48.822;9.270;2023-07-31T10:01:56;31.80;1.00
9323;DHT22;4700;48.822;9.270;2023-07-31T10:04:44;31.80;99.90
9323;DHT22;4700;48.822;9.270;2023-07-31T10:07:31;31.80;99.90
9323;DHT22;4700;48.822;9.270;2023-07-31T10:10:21;31.60;99.90
9323;DHT22;4700;48.822;9.270;2023-07-31T10:13:06;30.80;99.90
9323;DHT22;4700;48.822;9.270;2023-07-31T10:18:40;27.80;1.00
9323;DHT22;4700;48.822;9.270;2023-07-31T10:21:27;29.10;99.90
9323;DHT22;4700;48.822;9.270;2023-07-31T10:24:14;30.00;1.00
9323;DHT22;4700;48.822;9.270;2023-07-31T10:27:01;30.50;1.00
9323;DHT22;4700;48.822;9.270;2023-07-31T10:29:48;30.60;1.00
9323;DHT22;4700;48.822;9.270;2023-07-31T10:32:34;29.80;99.90
9323;DHT22;4700;48.822;9.270;2023-07-31T10:35:21;29.20;1.00
9323;DHT22;4700;48.822;9.270;2023-07-31T10:38:12;29.60;1.00
9323;DHT22;4700;48.822;9.270;2023-07-31T10:41:08;29.60;99.90
9323;DHT22;4700;48.822;9.270;2023-07-31T10:43:55;29.30;1.00
9323;DHT22;4700;48.822;9.270;2023-07-31T10:46:42;26.90;1.00
9323;DHT22;4700;48.822;9.270;2023-07-31T10:49:29;28.10;99.90
9323;DHT22;4700;48.822;9.270;2023-07-31T10:52:20;27.90;1.00
9323;DHT22;4700;48.822;9.270;2023-07-31T10:55:26;27.80;1.00
9323;DHT22;4700;48.822;9.270;2023-07-31T10:58:13;27.60;1.00
9323;DHT22;4700;48.822;9.270;2023-07-31T11:01:02;27.80;1.00
9323;DHT22;4700;48.822;9.270;2023-07-31T11:03:49;27.70;1.00
9323;DHT22;4700;48.822;9.270;2023-07-31T11:06:36;27.30;1.00
9323;DHT22;4700;48.822;9.270;2023-07-31T11:09:22;27.00;1.00
9323;DHT22;4700;48.822;9.270;2023-07-31T11:12:09;26.10;1.00
9323;DHT22;4700;48.822;9.270;2023-07-31T11:14:57;26.40;1.00
9323;DHT22;4700;48.822;9.270;2023-07-31T11:17:42;26.40;1.00
9323;DHT22;4700;48.822;9.270;2023-07-31T11:20:29;27.00;1.00
9323;DHT22;4700;48.822;9.270;2023-07-31T11:23:16;26.80;1.00
9323;DHT22;4700;48.822;9.270;2023-07-31T11:26:02;27.20;1.00
9323;DHT22;4700;48.822;9.270;2023-07-31T11:28:51;27.10;1.00
9323;DHT22;4700;48.822;9.270;2023-07-31T11:31:42;26.40;1.00
9323;DHT22;4700;48.822;9.270;2023-07-31T11:34:27;26.30;1.00
9323;DHT22;4700;48.822;9.270;2023-07-31T11:37:13;26.50;1.00
9323;DHT22;4700;48.822;9.270;2023-07-31T11:39:59;26.60;1.00
9323;DHT22;4700;48.822;9.270;2023-07-31T11:42:45;26.60;1.00
9323;DHT22;4700;48.822;9.270;2023-07-31T11:45:33;26.90;1.00
9323;DHT22;4700;48.822;9.270;2023-07-31T11:48:21;26.80;1.00
9323;DHT22;4700;48.822;9.270;2023-07-31T11:51:10;26.60;1.00
9323;DHT22;4700;48.822;9.270;2023-07-31T11:53:57;26.10;1.00
9323;DHT22;4700;48.822;9.270;2023-07-31T11:56:45;26.10;1.00
9323;DHT22;4700;48.822;9.270;2023-07-31T11:59:31;26.20;1.00
9323;DHT22;4700;48.822;9.270;2023-07-31T12:02:19;26.70;1.00
9323;DHT22;4700;48.822;9.270;2023-07-31T12:05:06;26.90;1.00
9323;DHT22;4700;48.822;9.270;2023-07-31T12:07:54;27.30;1.00
9323;DHT22;4700;48.822;9.270;2023-07-31T12:10:40;27.30;1.00
9323;DHT22;4700;48.822;9.270;2023-07-31T12:13:27;27.10;1.00
9323;DHT22;4700;48.822;9.270;2023-07-31T12:16:15;27.50;1.00
9323;DHT22;4700;48.822;9.270;2023-07-31T12:19:02;27.80;1.00
9323;DHT22;4700;48.822;9.270;2023-07-31T12:21:48;27.20;1.00
9323;DHT22;4700;48.822;9.270;2023-07-31T12:24:35;27.30;1.00
9323;DHT22;4700;48.822;9.270;2023-07-31T12:27:24;27.50;1.00
9323;DHT22;4700;48.822;9.270;2023-07-31T12:30:26;26.80;1.00
9323;DHT22;4700;48.822;9.270;2023-07-31T12:33:16;26.80;1.00
9323;DHT22;4700;48.822;9.270;2023-07-31T12:36:08;26.50;1.00
9323;DHT22;4700;48.822;9.270;2023-07-31T12:38:55;26.30;1.00
9323;DHT22;4700;48.822;9.270;2023-07-31T12:41:43;26.30;1.00
9323;DHT22;4700;48.822;9.270;2023-07-31T12:44:28;26.20;1.00
9323;DHT22;4700;48.822;9.270;2023-07-31T12:47:14;26.30;1.00
9323;DHT22;4700;48.822;9.270;2023-07-31T12:50:01;26.70;1.00
9323;DHT22;4700;48.822;9.270;2023-07-31T12:52:48;26.50;1.00
9323;DHT22;4700;48.822;9.270;2023-07-31T12:55:34;26.10;1.00
9323;DHT22;4700;48.822;9.270;2023-07-31T12:58:23;25.90;1.00
9323;DHT22;4700;48.822;9.270;2023-07-31T13:01:09;25.80;1.00
9323;DHT22;4700;48.822;9.270;2023-07-31T13:03:55;25.60;1.00
9323;DHT22;4700;48.822;9.270;2023-07-31T13:06:42;25.20;1.00
9323;DHT22;4700;48.822;9.270;2023-07-31T13:09:31;25.20;1.00
9323;DHT22;4700;48.822;9.270;2023-07-31T13:12:17;25.10;1.00
9323;DHT22;4700;48.822;9.270;2023-07-31T13:17:49;25.00;1.00
9323;DHT22;4700;48.822;9.270;2023-07-31T13:20:36;24.80;1.00
9323;DHT22;4700;48.822;9.270;2023-07-31T13:23:24;24.50;1.00
9323;DHT22;4700;48.822;9.270;2023-07-31T13:26:11;24.50;1.00
9323;DHT22;4700;48.822;9.270;2023-07-31T13:28:57;24.70;1.00
9323;DHT22;4700;48.822;9.270;2023-07-31T13:31:43;24.80;1.00
9323;DHT22;4700;48.822;9.270;2023-07-31T13:34:28;24.80;1.00
9323;DHT22;4700;48.822;9.270;2023-07-31T13:37:14;24.70;1.00
9323;DHT22;4700;48.822;9.270;2023-07-31T13:40:00;25.00;1.00
9323;DHT22;4700;48.822;9.270;2023-07-31T13:42:52;25.10;1.00
9323;DHT22;4700;48.822;9.270;2023-07-31T13:45:40;25.40;1.00
9323;DHT22;4700;48.822;9.270;2023-07-31T13:48:25;25.80;1.00
9323;DHT22;4700;48.822;9.270;2023-07-31T13:51:11;25.70;1.00
9323;DHT22;4700;48.822;9.270;2023-07-31T13:53:59;25.80;1.00
9323;DHT22;4700;48.822;9.270;2023-07-31T13:56:46;26.00;1.00
9323;DHT22;4700;48.822;9.270;2023-07-31T13:59:33;26.10;1.00
9323;DHT22;4700;48.822;9.270;2023-07-31T14:02:19;26.20;1.00
9323;DHT22;4700;48.822;9.270;2023-07-31T14:05:05;26.00;1.00
9323;DHT22;4700;48.822;9.270;2023-07-31T14:07:52;25.70;1.00
9323;DHT22;4700;48.822;9.270;2023-07-31T14:10:38;25.80;1.00
9323;DHT22;4700;48.822;9.270;2023-07-31T14:13:24;25.80;1.00
9323;DHT22;4700;48.822;9.270;2023-07-31T14:18:57;25.60;1.00
9323;DHT22;4700;48.822;9.270;2023-07-31T14:21:43;25.90;1.00
9323;DHT22;4700;48.822;9.270;2023-07-31T14:24:29;26.00;1.00
9323;DHT22;4700;48.822;9.270;2023-07-31T14:27:14;26.10;1.00
9323;DHT22;4700;48.822;9.270;2023-07-31T14:30:00;26.10;1.00
9323;DHT22;4700;48.822;9.270;2023-07-31T14:32:47;25.50;1.00
9323;DHT22;4700;48.822;9.270;2023-07-31T14:35:35;25.90;1.00
9323;DHT22;4700;48.822;9.270;2023-07-31T14:38:21;26.00;1.00
9323;DHT22;4700;48.822;9.270;2023-07-31T14:41:09;25.70;1.00
9323;DHT22;4700;48.822;9.270;2023-07-31T14:46:41;25.50;1.00
9323;DHT22;4700;48.822;9.270;2023-07-31T14:49:28;25.60;1.00
9323;DHT22;4700;48.822;9.270;2023-07-31T14:52:13;25.80;1.00
9323;DHT22;4700;48.822;9.270;2023-07-31T14:54:59;25.80;1.00
9323;DHT22;4700;48.822;9.270;2023-07-31T14:57:44;26.20;1.00
9323;DHT22;4700;48.822;9.270;2023-07-31T15:00:30;26.60;1.00
9323;DHT22;4700;48.822;9.270;2023-07-31T15:03:16;26.60;1.00
9323;DHT22;4700;48.822;9.270;2023-07-31T15:06:03;26.60;1.00
9323;DHT22;4700;48.822;9.270;2023-07-31T15:08:50;26.60;1.00
9323;DHT22;4700;48.822;9.270;2023-07-31T15:11:38;26.40;1.00
9323;DHT22;4700;48.822;9.270;2023-07-31T15:16:53;26.30;1.00
9323;DHT22;4700;48.822;9.270;2023-07-31T15:19:39;26.50;1.00
9323;DHT22;4700;48.822;9.270;2023-07-31T15:22:26;26.40;1.00
9323;DHT22;4700;48.822;9.270;2023-07-31T15:25:11;26.40;1.00
9323;DHT22;4700;48.822;9.270;2023-07-31T15:27:58;26.30;1.00
9323;DHT22;4700;48.822;9.270;2023-07-31T15:30:44;26.30;1.00
9323;DHT22;4700;48.822;9.270;2023-07-31T15:33:30;26.40;1.00
9323;DHT22;4700;48.822;9.270;2023-07-31T15:36:16;26.10;1.00
9323;DHT22;4700;48.822;9.270;2023-07-31T15:39:04;26.00;1.00
9323;DHT22;4700;48.822;9.270;2023-07-31T15:41:52;25.90;1.00
9323;DHT22;4700;48.822;9.270;2023-07-31T15:47:27;26.00;1.00
9323;DHT22;4700;48.822;9.270;2023-07-31T15:50:13;25.90;1.00
9323;DHT22;4700;48.822;9.270;2023-07-31T15:52:59;25.70;1.00
9323;DHT22;4700;48.822;9.270;2023-07-31T15:55:46;26.10;1.00
9323;DHT22;4700;48.822;9.270;2023-07-31T15:58:32;25.60;1.00
9323;DHT22;4700;48.822;9.270;2023-07-31T16:01:17;25.50;1.00
9323;DHT22;4700;48.822;9.270;2023-07-31T16:04:03;25.60;1.00
9323;DHT22;4700;48.822;9.270;2023-07-31T16:06:49;25.30;1.00
9323;DHT22;4700;48.822;9.270;2023-07-31T16:09:35;25.10;1.00
9323;DHT22;4700;48.822;9.270;2023-07-31T16:12:22;25.20;1.00
9323;DHT22;4700;48.822;9.270;2023-07-31T16:15:08;25.00;1.00
9323;DHT22;4700;48.822;9.270;2023-07-31T16:17:54;25.00;1.00
9323;DHT22;4700;48.822;9.270;2023-07-31T16:20:40;25.10;1.00
9323;DHT22;4700;48.822;9.270;2023-07-31T16:23:25;24.90;1.00
9323;DHT22;4700;48.822;9.270;2023-07-31T16:26:11;24.80;1.00
9323;DHT22;4700;48.822;9.270;2023-07-31T16:28:58;24.50;1.00
9323;DHT22;4700;48.822;9.270;2023-07-31T16:31:43;24.50;1.00
9323;DHT22;4700;48.822;9.270;2023-07-31T16:34:29;24.60;1.00
9323;DHT22;4700;48.822;9.270;2023-07-31T16:37:15;24.50;1.00
9323;DHT22;4700;48.822;9.270;2023-07-31T16:40:00;24.40;1.00
9323;DHT22;4700;48.822;9.270;2023-07-31T16:42:47;24.50;1.00
9323;DHT22;4700;48.822;9.270;2023-07-31T16:45:34;24.30;1.00
9323;DHT22;4700;48.822;9.270;2023-07-31T16:48:20;24.50;1.00
9323;DHT22;4700;48.822;9.270;2023-07-31T16:51:06;24.20;1.00
9323;DHT22;4700;48.822;9.270;2023-07-31T16:53:52;24.20;1.00
9323;DHT22;4700;48.822;9.270;2023-07-31T16:56:38;24.10;1.00
9323;DHT22;4700;48.822;9.270;2023-07-31T16:59:23;23.90;1.00
9323;DHT22;4700;48.822;9.270;2023-07-31T17:02:11;23.80;1.00
9323;DHT22;4700;48.822;9.270;2023-07-31T17:04:56;23.80;1.00
9323;DHT22;4700;48.822;9.270;2023-07-31T17:07:42;23.90;1.00
9323;DHT22;4700;48.822;9.270;2023-07-31T17:10:28;23.40;1.00
9323;DHT22;4700;48.822;9.270;2023-07-31T17:13:13;23.60;1.00
9323;DHT22;4700;48.822;9.270;2023-07-31T17:18:46;23.50;1.00
9323;DHT22;4700;48.822;9.270;2023-07-31T17:21:32;23.40;1.00
9323;DHT22;4700;48.822;9.270;2023-07-31T17:24:17;23.40;1.00
9323;DHT22;4700;48.822;9.270;2023-07-31T17:27:03;23.30;1.00
9323;DHT22;4700;48.822;9.270;2023-07-31T17:29:49;23.30;1.00
9323;DHT22;4700;48.822;9.270;2023-07-31T17:32:35;23.10;1.00
9323;DHT22;4700;48.822;9.270;2023-07-31T17:35:22;23.00;1.00
9323;DHT22;4700;48.822;9.270;2023-07-31T17:38:08;22.90;1.00
9323;DHT22;4700;48.822;9.270;2023-07-31T17:40:53;22.80;1.00
9323;DHT22;4700;48.822;9.270;2023-07-31T17:43:42;22.60;1.00
9323;DHT22;4700;48.822;9.270;2023-07-31T17:46:27;22.70;1.00
9323;DHT22;4700;48.822;9.270;2023-07-31T17:49:13;22.60;1.00
9323;DHT22;4700;48.822;9.270;2023-07-31T17:52:02;22.50;1.00
9323;DHT22;4700;48.822;9.270;2023-07-31T17:54:48;22.50;1.00
9323;DHT22;4700;48.822;9.270;2023-07-31T17:57:38;22.50;1.00
9323;DHT22;4700;48.822;9.270;2023-07-31T18:00:24;22.40;1.00
9323;DHT22;4700;48.822;9.270;2023-07-31T18:03:10;22.30;1.00
9323;DHT22;4700;48.822;9.270;2023-07-31T18:05:56;22.30;1.00
9323;DHT22;4700;48.822;9.270;2023-07-31T18:08:45;22.30;1.00
9323;DHT22;4700;48.822;9.270;2023-07-31T18:11:31;22.30;1.00
9323;DHT22;4700;48.822;9.270;2023-07-31T18:14:16;22.20;1.00
9323;DHT22;4700;48.822;9.270;2023-07-31T18:17:06;22.10;1.00
9323;DHT22;4700;48.822;9.270;2023-07-31T18:19:51;22.10;1.00
9323;DHT22;4700;48.822;9.270;2023-07-31T18:22:37;22.00;1.00
9323;DHT22;4700;48.822;9.270;2023-07-31T18:25:24;22.00;1.00
9323;DHT22;4700;48.822;9.270;2023-07-31T18:28:10;22.00;1.00
9323;DHT22;4700;48.822;9.270;2023-07-31T18:30:57;21.90;1.00
9323;DHT22;4700;48.822;9.270;2023-07-31T18:33:43;21.90;1.00
9323;DHT22;4700;48.822;9.270;2023-07-31T18:36:28;21.90;1.00
9323;DHT22;4700;48.822;9.270;2023-07-31T18:39:14;21.90;1.00
9323;DHT22;4700;48.822;9.270;2023-07-31T18:42:01;21.80;1.00
9323;DHT22;4700;48.822;9.270;2023-07-31T18:44:47;21.90;1.00
9323;DHT22;4700;48.822;9.270;2023-07-31T18:47:32;21.70;1.00
9323;DHT22;4700;48.822;9.270;2023-07-31T18:50:18;21.70;1.00
9323;DHT22;4700;48.822;9.270;2023-07-31T18:53:03;21.70;1.00
9323;DHT22;4700;48.822;9.270;2023-07-31T18:55:49;21.60;1.00
9323;DHT22;4700;48.822;9.270;2023-07-31T18:58:36;21.50;1.00
9323;DHT22;4700;48.822;9.270;2023-07-31T19:01:24;21.50;1.00
9323;DHT22;4700;48.822;9.270;2023-07-31T19:04:13;21.60;1.00
9323;DHT22;4700;48.822;9.270;2023-07-31T19:06:59;21.30;1.00
9323;DHT22;4700;48.822;9.270;2023-07-31T19:09:44;21.20;1.00
9323;DHT22;4700;48.822;9.270;2023-07-31T19:12:30;21.10;1.00
9323;DHT22;4700;48.822;9.270;2023-07-31T19:15:17;20.30;1.00
9323;DHT22;4700;48.822;9.270;2023-07-31T19:18:03;20.50;1.00
9323;DHT22;4700;48.822;9.270;2023-07-31T19:20:49;20.10;1.00
9323;DHT22;4700;48.822;9.270;2023-07-31T19:23:36;19.80;1.00
9323;DHT22;4700;48.822;9.270;2023-07-31T19:26:22;19.60;1.00
9323;DHT22;4700;48.822;9.270;2023-07-31T19:29:07;19.30;1.00
9323;DHT22;4700;48.822;9.270;2023-07-31T19:31:56;19.30;1.00
9323;DHT22;4700;48.822;9.270;2023-07-31T19:34:42;18.80;1.00
9323;DHT22;4700;48.822;9.270;2023-07-31T19:59:10;18.40;1.00